createdAt,value
2018-01-07T00:00:55.839Z,81.80
2018-01-07T00:03:24.194Z,81.90
2018-01-07T00:05:53.098Z,81.80
2018-01-07T00:08:21.248Z,81.80
2018-01-07T00:10:49.377Z,81.70
2018-01-07T00:13:17.505Z,81.60
2018-01-07T00:15:45.651Z,81.60
2018-01-07T00:18:13.809Z,81.50
2018-01-07T00:20:42.743Z,81.40
2018-01-07T00:23:10.857Z,81.40
2018-01-07T00:25:39.007Z,81.40
2018-01-07T00:28:07.149Z,82.20
2018-01-07T00:30:35.272Z,81.30
2018-01-07T00:33:03.414Z,81.40
2018-01-07T00:35:31.569Z,81.50
2018-01-07T00:37:59.698Z,81.40
2018-01-07T00:40:28.602Z,81.70
2018-01-07T00:42:57.592Z,81.50
2018-01-07T00:45:26.477Z,81.40
2018-01-07T00:47:55.377Z,81.40
2018-01-07T00:50:24.279Z,81.50
2018-01-07T00:52:52.393Z,81.50
2018-01-07T00:55:20.607Z,81.70
2018-01-07T00:57:49.598Z,81.50
2018-01-07T01:00:18.519Z,81.70
2018-01-07T01:02:46.692Z,81.60
2018-01-07T01:05:15.554Z,81.90
2018-01-07T01:07:44.448Z,81.80
2018-01-07T01:10:13.365Z,81.80
2018-01-07T01:12:41.490Z,81.80
2018-01-07T01:15:09.607Z,81.60
2018-01-07T01:17:37.894Z,81.70
2018-01-07T01:20:06.010Z,81.50
2018-01-07T01:22:34.231Z,81.50
2018-01-07T01:25:02.401Z,81.70
2018-01-07T01:27:31.291Z,81.20
2018-01-07T01:29:59.403Z,81.20
2018-01-07T01:32:27.740Z,81.00
2018-01-07T01:34:56.625Z,80.80
2018-01-07T01:37:24.741Z,80.90
2018-01-07T01:39:52.871Z,81.00
2018-01-07T01:42:21.006Z,80.90
2018-01-07T01:44:49.893Z,81.40
2018-01-07T01:47:18.810Z,80.60
2018-01-07T01:49:46.952Z,80.60
2018-01-07T01:52:15.888Z,80.50
2018-01-07T01:54:43.993Z,80.30
2018-01-07T01:57:12.203Z,80.20
2018-01-07T01:59:41.228Z,80.40
2018-01-07T02:02:10.095Z,80.60
2018-01-07T02:04:38.209Z,80.60
2018-01-07T02:07:06.335Z,80.60
2018-01-07T02:09:35.352Z,80.50
2018-01-07T02:12:04.251Z,80.50
2018-01-07T02:14:32.358Z,80.40
2018-01-07T02:17:00.488Z,80.40
2018-01-07T02:19:28.615Z,80.40
2018-01-07T02:21:57.515Z,81.20
2018-01-07T02:24:26.542Z,80.50
2018-01-07T02:26:55.409Z,80.80
2018-01-07T02:29:23.545Z,80.70
2018-01-07T02:31:51.762Z,81.50
2018-01-07T02:34:20.629Z,82.10
2018-01-07T02:36:49.532Z,82.30
2018-01-07T02:39:18.425Z,82.10
2018-01-07T02:41:47.318Z,82.10
2018-01-07T02:44:15.450Z,82.10
2018-01-07T02:46:43.638Z,81.90
2018-01-07T02:49:12.618Z,82.00
2018-01-07T02:51:42.245Z,82.70
2018-01-07T02:54:11.138Z,82.90
2018-01-07T02:56:40.063Z,83.30
2018-01-07T02:59:08.172Z,83.20
2018-01-07T03:01:36.303Z,83.30
2018-01-07T03:04:04.478Z,83.50
2018-01-07T03:06:32.652Z,83.50
2018-01-07T03:09:01.539Z,83.00
2018-01-07T03:11:29.651Z,83.10
2018-01-07T03:13:57.784Z,83.00
2018-01-07T03:16:25.904Z,82.70
2018-01-07T03:18:54.045Z,82.60
2018-01-07T03:21:22.167Z,83.00
2018-01-07T03:23:51.060Z,83.20
2018-01-07T03:26:20.083Z,83.20
2018-01-07T03:28:48.948Z,83.30
2018-01-07T03:31:17.103Z,83.40
2018-01-07T03:33:45.216Z,83.60
2018-01-07T03:36:13.325Z,83.80
2018-01-07T03:38:41.531Z,83.70
2018-01-07T03:41:10.516Z,83.80
2018-01-07T03:43:39.435Z,84.00
2018-01-07T03:46:07.555Z,84.00
2018-01-07T03:48:35.774Z,84.00
2018-01-07T03:51:03.897Z,84.00
2018-01-07T03:53:32.036Z,84.00
2018-01-07T03:56:00.207Z,84.00
2018-01-07T03:58:29.078Z,83.90
2018-01-07T04:00:58.090Z,84.00
2018-01-07T04:03:27.044Z,83.70
2018-01-07T04:05:55.926Z,83.90
2018-01-07T04:08:24.111Z,83.80
2018-01-07T04:10:52.991Z,83.90
2018-01-07T04:13:22.021Z,83.90
2018-01-07T04:15:50.203Z,83.90
2018-01-07T04:18:19.090Z,84.70
2018-01-07T04:20:47.225Z,84.60
2018-01-07T04:23:16.153Z,85.00
2018-01-07T04:25:45.105Z,85.20
2018-01-07T04:28:13.985Z,85.30
2018-01-07T04:30:42.205Z,85.20
2018-01-07T04:33:11.104Z,85.40
2018-01-07T04:35:39.201Z,85.30
2018-01-07T04:38:07.442Z,85.20
2018-01-07T04:40:36.304Z,84.70
2018-01-07T04:43:04.461Z,84.70
2018-01-07T04:45:32.682Z,84.90
2018-01-07T04:48:00.782Z,84.90
2018-01-07T04:50:28.924Z,85.10
2018-01-07T04:52:57.097Z,85.30
2018-01-07T04:55:25.985Z,85.30
2018-01-07T04:57:54.109Z,85.40
2018-01-07T05:00:22.232Z,85.10
2018-01-07T05:02:50.350Z,85.20
2018-01-07T05:05:20.007Z,85.60
2018-01-07T05:07:48.975Z,85.50
2018-01-07T05:10:17.956Z,85.50
2018-01-07T05:12:46.856Z,85.50
2018-01-07T05:15:15.875Z,85.40
2018-01-07T05:17:44.739Z,85.20
2018-01-07T05:20:13.654Z,85.20
2018-01-07T05:22:41.829Z,85.10
2018-01-07T05:25:10.718Z,84.90
2018-01-07T05:27:39.608Z,84.90
2018-01-07T05:30:07.781Z,84.80
2018-01-07T05:32:36.671Z,84.90
2018-01-07T05:35:04.802Z,84.90
2018-01-07T05:37:32.982Z,84.60
2018-01-07T05:40:01.869Z,84.60
2018-01-07T05:42:30.760Z,84.50
2018-01-07T05:44:59.688Z,84.60
2018-01-07T05:47:28.575Z,84.40
2018-01-07T05:49:57.476Z,84.60
2018-01-07T05:52:25.638Z,84.60
2018-01-07T05:54:54.515Z,84.60
2018-01-07T05:57:23.411Z,84.60
2018-01-07T05:59:51.518Z,84.60
2018-01-07T06:02:19.662Z,84.40
2018-01-07T06:04:47.836Z,84.30
2018-01-07T06:07:16.728Z,84.10
2018-01-07T06:09:44.844Z,84.10
2018-01-07T06:12:14.524Z,84.10
2018-01-07T06:14:42.682Z,84.10
2018-01-07T06:17:11.537Z,84.20
2018-01-07T06:19:40.421Z,84.20
2018-01-07T06:22:09.346Z,84.20
2018-01-07T06:24:38.342Z,83.90
2018-01-07T06:27:07.277Z,83.60
2018-01-07T06:29:35.334Z,83.60
2018-01-07T06:32:03.537Z,83.50
2018-01-07T06:34:32.411Z,83.70
2018-01-07T06:37:00.540Z,83.70
2018-01-07T06:39:28.655Z,83.80
2018-01-07T06:41:56.791Z,83.80
2018-01-07T06:44:24.911Z,83.80
2018-01-07T06:46:53.034Z,83.60
2018-01-07T06:49:21.195Z,83.60
2018-01-07T06:51:50.057Z,83.60
2018-01-07T06:54:18.953Z,83.80
2018-01-07T06:56:47.868Z,83.90
2018-01-07T06:59:16.755Z,84.00
2018-01-07T07:01:44.865Z,84.00
2018-01-07T07:04:12.992Z,83.80
2018-01-07T07:06:41.098Z,84.10
2018-01-07T07:09:09.346Z,84.20
2018-01-07T07:11:38.342Z,84.10
2018-01-07T07:14:07.328Z,84.10
2018-01-07T07:16:36.192Z,84.10
2018-01-07T07:19:05.109Z,84.30
2018-01-07T07:21:33.285Z,84.30
2018-01-07T07:24:02.183Z,84.30
2018-01-07T07:26:30.346Z,84.30
2018-01-07T07:28:59.223Z,84.10
2018-01-07T07:31:27.337Z,84.10
2018-01-07T07:33:55.704Z,84.00
2018-01-07T07:36:23.865Z,84.20
2018-01-07T07:38:51.972Z,84.30
2018-01-07T07:41:20.124Z,84.40
2018-01-07T07:43:48.275Z,84.50
2018-01-07T07:46:17.166Z,84.40
2018-01-07T07:48:46.056Z,84.40
2018-01-07T07:51:14.227Z,84.40
2018-01-07T07:53:43.094Z,84.60
2018-01-07T07:56:11.987Z,84.60
2018-01-07T07:58:40.110Z,84.60
2018-01-07T08:01:08.354Z,84.60
2018-01-07T08:03:37.273Z,84.50
2018-01-07T08:06:05.519Z,84.50
2018-01-07T08:08:34.382Z,84.90
2018-01-07T08:11:03.270Z,84.90
2018-01-07T08:13:32.166Z,85.00
2018-01-07T08:16:01.058Z,85.00
2018-01-07T08:18:29.195Z,84.90
2018-01-07T08:20:57.424Z,85.10
2018-01-07T08:23:26.307Z,84.90
2018-01-07T08:25:54.443Z,84.90
2018-01-07T08:28:23.326Z,85.10
2018-01-07T08:30:51.551Z,84.90
2018-01-07T08:33:20.438Z,85.00
2018-01-07T08:35:48.579Z,84.90
2018-01-07T08:38:17.504Z,84.80
2018-01-07T08:40:45.632Z,84.70
2018-01-07T08:43:14.564Z,84.90
2018-01-07T08:45:43.453Z,84.90
2018-01-07T08:48:12.345Z,84.70
2018-01-07T08:50:40.519Z,84.70
2018-01-07T08:53:09.571Z,84.50
2018-01-07T08:55:38.470Z,84.40
2018-01-07T08:58:07.389Z,84.30
2018-01-07T09:00:35.520Z,84.20
2018-01-07T09:03:03.683Z,84.50
2018-01-07T09:05:31.916Z,84.60
2018-01-07T09:08:00.809Z,84.50
2018-01-07T09:10:28.987Z,84.50
2018-01-07T09:12:57.879Z,84.70
2018-01-07T09:15:26.049Z,84.70
2018-01-07T09:17:55.044Z,84.50
2018-01-07T09:20:23.164Z,84.50
2018-01-07T09:22:51.310Z,84.10
2018-01-07T09:25:19.510Z,84.30
2018-01-07T09:27:47.635Z,84.20
2018-01-07T09:30:15.810Z,83.90
2018-01-07T09:32:43.948Z,83.40
2018-01-07T09:35:12.868Z,82.90
2018-01-07T09:37:41.054Z,82.90
2018-01-07T09:40:09.387Z,83.00
2018-01-07T09:42:37.567Z,82.80
2018-01-07T09:45:06.581Z,82.80
2018-01-07T09:47:35.467Z,82.80
2018-01-07T09:50:03.652Z,82.80
2018-01-07T09:52:31.814Z,82.90
2018-01-07T09:55:00.695Z,82.60
2018-01-07T09:57:29.238Z,82.60
2018-01-07T09:59:57.353Z,82.30
2018-01-07T10:02:25.589Z,82.10
2018-01-07T10:04:53.717Z,81.60
2018-01-07T10:07:21.969Z,81.60
2018-01-07T10:09:50.863Z,81.60
2018-01-07T10:12:19.045Z,81.40
2018-01-07T10:14:47.163Z,81.40
2018-01-07T10:17:15.311Z,81.60
2018-01-07T10:19:43.458Z,81.10
2018-01-07T10:22:11.737Z,81.30
2018-01-07T10:24:39.857Z,81.60
2018-01-07T10:27:08.083Z,81.90
2018-01-07T10:29:36.262Z,82.00
2018-01-07T10:32:04.386Z,81.90
2018-01-07T10:34:33.283Z,81.90
2018-01-07T10:37:01.416Z,81.90
2018-01-07T10:39:29.564Z,82.00
2018-01-07T10:41:58.535Z,81.20
2018-01-07T10:44:27.448Z,81.50
2018-01-07T10:46:55.734Z,81.50
2018-01-07T10:49:23.849Z,81.50
2018-01-07T10:51:52.781Z,82.70
2018-01-07T10:54:20.894Z,82.10
2018-01-07T10:56:49.076Z,82.40
2018-01-07T10:59:17.303Z,82.60
2018-01-07T11:01:51.886Z,82.60
2018-01-07T11:04:20.067Z,82.50
2018-01-07T11:06:48.994Z,82.80
2018-01-07T11:09:17.210Z,82.80
2018-01-07T11:11:45.468Z,83.00
2018-01-07T11:14:13.614Z,83.00
2018-01-07T11:16:42.486Z,82.80
2018-01-07T11:19:10.651Z,82.80
2018-01-07T11:21:39.671Z,82.90
2018-01-07T11:24:07.911Z,82.80
2018-01-07T11:26:37.654Z,83.00
2018-01-07T11:29:06.530Z,83.00
2018-01-07T11:31:34.717Z,83.00
2018-01-07T11:34:03.591Z,82.80
2018-01-07T11:36:31.778Z,82.80
2018-01-07T11:38:59.897Z,83.00
2018-01-07T11:41:28.125Z,82.80
2018-01-07T11:43:56.270Z,82.50
2018-01-07T11:46:25.169Z,82.80
2018-01-07T11:54:31.493Z,83.30
2018-01-07T11:56:59.660Z,83.30
2018-01-07T11:59:27.829Z,83.70
2018-01-07T12:01:56.930Z,83.70
2018-01-07T12:04:25.051Z,83.70
2018-01-07T12:06:53.216Z,83.70
2018-01-07T12:09:21.341Z,83.70
2018-01-07T12:11:49.487Z,83.60
2018-01-07T12:14:18.404Z,83.80
2018-01-07T12:16:47.398Z,83.90
2018-01-07T12:19:15.507Z,83.90
2018-01-07T12:21:43.750Z,83.90
2018-01-07T12:24:11.868Z,83.90
2018-01-07T12:26:40.059Z,83.90
2018-01-07T12:29:08.983Z,84.00
2018-01-07T12:31:37.156Z,84.00
2018-01-07T12:34:05.308Z,83.80
2018-01-07T12:36:34.318Z,83.80
2018-01-07T12:39:03.210Z,83.80
2018-01-07T12:41:31.360Z,83.80
2018-01-07T12:44:00.261Z,83.90
2018-01-07T12:46:28.409Z,83.90
2018-01-07T12:48:57.347Z,83.90
2018-01-07T12:51:25.480Z,83.90
2018-01-07T12:53:54.395Z,83.90
2018-01-07T12:56:22.571Z,83.80
2018-01-07T12:58:51.474Z,84.10
2018-01-07T13:01:19.635Z,84.10
2018-01-07T13:03:47.763Z,83.90
2018-01-07T13:06:16.060Z,84.00
2018-01-07T13:08:44.999Z,84.00
2018-01-07T13:11:13.199Z,84.00
2018-01-07T13:13:41.315Z,84.10
2018-01-07T13:16:09.909Z,84.30
2018-01-07T13:18:38.045Z,84.10
2018-01-07T13:21:06.937Z,84.40
2018-01-07T13:23:36.830Z,84.40
2018-01-07T13:26:04.976Z,84.40
2018-01-07T13:28:33.229Z,84.50
2018-01-07T13:31:02.083Z,84.50
2018-01-07T13:33:31.093Z,84.70
2018-01-07T13:36:00.003Z,84.40
2018-01-07T13:38:28.120Z,84.30
2018-01-07T13:40:57.782Z,84.50
2018-01-07T13:43:25.943Z,84.50
2018-01-07T13:45:54.100Z,84.90
2018-01-07T13:48:23.013Z,84.70
2018-01-07T13:50:51.186Z,84.70
2018-01-07T13:53:19.353Z,84.80
2018-01-07T13:55:47.495Z,85.20
2018-01-07T13:58:16.601Z,85.00
2018-01-07T14:00:45.517Z,85.10
2018-01-07T14:03:14.402Z,85.00
2018-01-07T14:05:42.580Z,85.00
2018-01-07T14:08:11.482Z,85.00
2018-01-07T14:10:39.640Z,85.00
2018-01-07T14:13:07.764Z,84.90
2018-01-07T14:15:35.889Z,85.10
2018-01-07T14:18:04.107Z,84.80
2018-01-07T14:20:32.246Z,84.70
2018-01-07T14:23:00.390Z,84.70
2018-01-07T14:25:28.548Z,84.90
2018-01-07T14:27:57.464Z,84.70
2018-01-07T14:30:26.457Z,84.60
2018-01-07T14:32:55.321Z,84.90
2018-01-07T14:35:23.517Z,84.90
2018-01-07T14:37:52.414Z,84.80
2018-01-07T14:40:20.588Z,84.70
2018-01-07T14:42:48.700Z,84.70
2018-01-07T14:45:16.820Z,84.70
2018-01-07T14:47:45.005Z,84.60
2018-01-07T14:50:13.140Z,84.80
2018-01-07T14:52:42.054Z,84.20
2018-01-07T14:55:10.180Z,84.20
2018-01-07T14:57:38.312Z,84.20
2018-01-07T15:00:06.457Z,84.20
2018-01-07T15:02:34.592Z,84.30
2018-01-07T15:05:02.816Z,84.30
2018-01-07T15:07:31.766Z,84.50
2018-01-07T15:09:59.925Z,84.50
2018-01-07T15:12:28.066Z,84.50
2018-01-07T15:14:57.060Z,84.00
2018-01-07T15:17:25.224Z,84.00
2018-01-07T15:19:53.379Z,83.90
2018-01-07T15:22:22.291Z,84.20
2018-01-07T15:24:50.472Z,84.20
2018-01-07T15:27:18.640Z,84.20
2018-01-07T15:29:46.769Z,84.10
2018-01-07T15:32:14.981Z,84.20
2018-01-07T15:34:43.187Z,84.60
2018-01-07T15:37:11.431Z,83.90
2018-01-07T15:39:39.605Z,83.70
2018-01-07T15:42:08.556Z,83.50
2018-01-07T15:44:36.677Z,83.50
2018-01-07T15:47:04.804Z,83.50
2018-01-07T15:49:32.932Z,83.60
2018-01-07T15:52:01.186Z,83.60
2018-01-07T15:54:30.292Z,83.20
2018-01-07T15:56:58.472Z,83.20
2018-01-07T15:59:26.595Z,82.80
2018-01-07T16:01:54.747Z,82.90
2018-01-07T16:04:22.901Z,83.00
2018-01-07T16:06:51.041Z,83.10
2018-01-07T16:09:19.986Z,83.20
2018-01-07T16:11:48.311Z,83.20
2018-01-07T16:14:17.200Z,83.60
2018-01-07T16:16:45.438Z,83.50
2018-01-07T16:19:14.344Z,83.90
2018-01-07T16:21:43.264Z,84.10
2018-01-07T16:24:11.377Z,84.10
2018-01-07T16:26:39.544Z,84.30
2018-01-07T16:29:07.677Z,84.40
2018-01-07T16:31:35.805Z,84.70
2018-01-07T16:34:04.742Z,85.60
2018-01-07T16:36:32.920Z,84.90
2018-01-07T16:39:01.060Z,85.10
2018-01-07T16:41:29.973Z,85.10
2018-01-07T16:43:58.152Z,85.10
2018-01-07T16:46:27.048Z,85.40
2018-01-07T16:48:55.186Z,85.30
2018-01-07T16:51:24.209Z,85.50
2018-01-07T16:53:52.324Z,85.50
2018-01-07T16:56:20.515Z,85.50
2018-01-07T16:58:48.625Z,85.70
2018-01-07T17:01:16.795Z,85.70
2018-01-07T17:03:44.905Z,85.70
2018-01-07T17:06:13.354Z,85.60
2018-01-07T17:08:41.480Z,85.70
2018-01-07T17:11:10.389Z,85.80
2018-01-07T17:13:39.301Z,85.80
2018-01-07T17:16:07.996Z,85.80
2018-01-07T17:18:37.389Z,85.90
2018-01-07T17:21:05.570Z,85.80
2018-01-07T17:23:33.773Z,85.90
2018-01-07T17:26:01.918Z,85.90
2018-01-07T17:28:30.199Z,85.80
2018-01-07T17:30:58.819Z,86.00
2018-01-07T17:33:27.038Z,86.00
2018-01-07T17:35:55.970Z,86.20
2018-01-07T17:38:24.165Z,86.20
2018-01-07T17:40:52.376Z,86.30
2018-01-07T17:43:20.541Z,85.90
2018-01-07T17:45:49.418Z,86.40
2018-01-07T17:48:18.438Z,86.40
2018-01-07T17:50:47.340Z,86.50
2018-01-07T17:53:15.472Z,86.40
2018-01-07T17:55:44.396Z,86.50
2018-01-07T17:58:12.510Z,86.50
2018-01-07T18:00:40.655Z,86.60
2018-01-07T18:03:08.832Z,86.70
2018-01-07T18:05:36.980Z,86.70
2018-01-07T18:08:05.217Z,86.70
2018-01-07T18:10:33.536Z,86.70
2018-01-07T18:13:01.705Z,86.90
2018-01-07T18:15:30.703Z,87.00
2018-01-07T18:17:58.870Z,87.00
2018-01-07T18:20:27.767Z,87.30
2018-01-07T18:22:55.899Z,87.90
2018-01-07T18:25:24.800Z,87.40
2018-01-07T18:30:44.835Z,87.40
2018-01-07T18:33:12.983Z,87.50
2018-01-07T18:35:41.274Z,87.30
2018-01-07T18:38:09.806Z,87.20
2018-01-07T18:40:37.944Z,87.30
2018-01-07T18:43:06.083Z,87.20
2018-01-07T18:45:35.096Z,87.10
2018-01-07T18:48:03.270Z,87.10
2018-01-07T18:50:31.399Z,87.10
2018-01-07T18:53:01.271Z,87.10
2018-01-07T18:55:29.384Z,87.10
2018-01-07T18:57:57.563Z,87.00
2018-01-07T19:00:26.477Z,87.00
2018-01-07T19:02:54.620Z,87.00
2018-01-07T19:05:23.653Z,87.00
2018-01-07T19:07:51.764Z,87.00
2018-01-07T19:10:22.261Z,86.80
2018-01-07T19:12:50.407Z,86.80
2018-01-07T19:15:19.518Z,86.60
2018-01-07T19:17:47.679Z,86.60
2018-01-07T19:20:15.816Z,86.60
2018-01-07T19:22:44.042Z,86.50
2018-01-07T19:25:12.531Z,86.50
2018-01-07T19:27:40.720Z,86.30
2018-01-07T19:30:08.966Z,86.30
2018-01-07T19:32:37.958Z,86.30
2018-01-07T19:35:06.133Z,86.30
2018-01-07T19:37:34.306Z,86.20
2018-01-07T19:40:02.533Z,86.20
2018-01-07T19:42:32.174Z,86.20
2018-01-07T19:45:00.418Z,86.10
2018-01-07T19:47:28.661Z,86.20
2018-01-07T19:49:56.915Z,86.10
2018-01-07T19:52:25.083Z,86.10
2018-01-07T19:54:53.247Z,86.10
2018-01-07T19:57:21.426Z,86.10
2018-01-07T19:59:49.570Z,86.00
2018-01-07T20:02:19.779Z,85.80
2018-01-07T20:04:48.306Z,85.70
2018-01-07T20:07:16.456Z,85.70
2018-01-07T20:09:45.385Z,85.80
2018-01-07T20:12:13.571Z,85.80
2018-01-07T20:14:41.745Z,85.80
2018-01-07T20:17:11.399Z,85.70
2018-01-07T20:19:40.428Z,85.70
2018-01-07T20:22:11.061Z,85.60
2018-01-07T20:24:39.226Z,85.70
2018-01-07T20:27:07.395Z,85.70
2018-01-07T20:29:35.564Z,85.70
2018-01-07T20:32:03.699Z,85.60
2018-01-07T20:34:31.868Z,85.80
2018-01-07T20:37:01.521Z,85.60
2018-01-07T20:39:34.404Z,85.70
2018-01-07T20:42:03.610Z,85.60
2018-01-07T20:44:31.927Z,85.60
2018-01-07T20:47:00.063Z,85.50
2018-01-07T20:49:28.198Z,85.50
2018-01-07T20:51:56.527Z,85.40
2018-01-07T20:54:25.512Z,85.30
2018-01-07T20:56:53.674Z,85.30
2018-01-07T20:59:21.826Z,85.50
2018-01-07T21:01:51.464Z,85.30
2018-01-07T21:04:19.828Z,85.30
2018-01-07T21:06:52.920Z,85.30
2018-01-07T21:09:22.872Z,85.30
2018-01-07T21:11:52.848Z,85.40
2018-01-07T21:14:20.966Z,85.40
2018-01-07T21:16:50.578Z,85.60
2018-01-07T21:19:18.792Z,85.60
2018-01-07T21:21:47.881Z,85.40
2018-01-07T21:24:16.753Z,85.50
2018-01-07T21:26:45.152Z,85.40
2018-01-07T21:29:13.330Z,85.60
2018-01-07T21:31:42.008Z,85.50
2018-01-07T21:34:11.479Z,85.60
2018-01-07T21:36:40.423Z,85.50
2018-01-07T21:39:08.578Z,85.50
2018-01-07T21:41:36.721Z,85.60
2018-01-07T21:44:05.642Z,85.70
2018-01-07T21:46:33.811Z,85.60
2018-01-07T21:49:02.803Z,85.70
2018-01-07T21:51:31.711Z,85.50
2018-01-07T21:53:59.973Z,85.60
2018-01-07T21:56:28.174Z,85.50
2018-01-07T21:58:56.321Z,85.40
2018-01-07T22:01:36.341Z,85.50
2018-01-07T22:04:05.360Z,85.60
2018-01-07T22:06:45.379Z,85.60
2018-01-07T22:09:14.405Z,85.80
2018-01-07T22:11:43.463Z,85.70
2018-01-07T22:14:12.428Z,86.30
2018-01-07T22:16:40.665Z,85.60
2018-01-07T22:19:08.834Z,85.60
2018-01-07T22:21:37.007Z,85.60
2018-01-07T22:24:05.126Z,85.50
2018-01-07T22:26:33.754Z,85.50
2018-01-07T22:29:02.311Z,85.60
2018-01-07T22:31:31.440Z,85.70
2018-01-07T22:33:59.556Z,85.70
2018-01-07T22:36:27.720Z,85.50
2018-01-07T22:38:55.856Z,85.50
2018-01-07T22:41:24.082Z,85.40
2018-01-07T22:43:52.623Z,85.50
2018-01-07T22:46:20.781Z,85.40
2018-01-07T22:48:48.961Z,85.30
2018-01-07T22:51:17.059Z,85.40
2018-01-07T22:53:45.191Z,85.30
2018-01-07T22:56:13.328Z,85.40
2018-01-07T22:58:41.549Z,85.40
2018-01-07T23:01:10.440Z,85.50
2018-01-07T23:03:39.570Z,85.40
2018-01-07T23:06:08.015Z,85.40
2018-01-07T23:08:36.107Z,85.40
2018-01-07T23:11:04.263Z,85.30
2018-01-07T23:13:32.392Z,85.50
2018-01-07T23:16:01.318Z,85.60
2018-01-07T23:18:30.214Z,85.40
2018-01-07T23:20:58.504Z,85.30
2018-01-07T23:23:26.629Z,85.30
2018-01-07T23:25:55.037Z,85.30
2018-01-07T23:28:23.208Z,85.20
2018-01-07T23:30:52.203Z,85.30
2018-01-07T23:33:21.171Z,85.10
2018-01-07T23:35:50.084Z,85.10
2018-01-07T23:38:18.973Z,85.30
2018-01-07T23:40:47.147Z,85.20
2018-01-07T23:43:16.065Z,85.20
2018-01-07T23:45:44.411Z,85.10
2018-01-07T23:48:13.304Z,85.20
2018-01-07T23:50:41.650Z,85.20
2018-01-07T23:53:10.557Z,85.10
2018-01-07T23:55:39.579Z,85.10
2018-01-07T23:58:07.741Z,85.10
